createdAt,value
2023-03-10T00:00:35.507Z,22.00
2023-03-10T00:03:02.417Z,27.17
2023-03-10T00:05:29.409Z,24.30
2023-03-10T00:07:56.710Z,22.55
2023-03-10T00:10:24.315Z,22.20
2023-03-10T00:12:52.672Z,22.42
2023-03-10T00:15:19.783Z,24.13
2023-03-10T00:17:50.253Z,23.98
2023-03-10T00:20:17.182Z,22.92
2023-03-10T00:22:44.237Z,21.38
2023-03-10T00:25:11.592Z,27.40
2023-03-10T00:27:38.543Z,21.92
2023-03-10T00:30:07.891Z,22.73
2023-03-10T00:32:36.066Z,19.60
2023-03-10T00:35:03.166Z,20.02
2023-03-10T00:37:30.198Z,19.75
2023-03-10T00:39:57.384Z,17.60
2023-03-10T00:42:24.418Z,16.92
2023-03-10T00:44:51.424Z,18.90
2023-03-10T00:47:19.845Z,14.63
2023-03-10T00:49:47.693Z,13.18
2023-03-10T00:52:14.586Z,12.52
2023-03-10T00:54:42.129Z,12.27
2023-03-10T00:57:09.439Z,13.50
2023-03-10T00:59:49.310Z,11.45
2023-03-10T01:02:17.243Z,11.38
2023-03-10T01:04:45.790Z,11.30
2023-03-10T01:07:12.844Z,10.13
2023-03-10T01:09:40.105Z,11.57
2023-03-10T01:12:07.539Z,10.68
2023-03-10T01:14:34.788Z,11.52
2023-03-10T01:17:01.706Z,15.57
2023-03-10T01:19:28.686Z,12.75
2023-03-10T01:21:57.068Z,28.30
2023-03-10T01:24:24.162Z,27.05
2023-03-10T01:26:51.132Z,47.08
2023-03-10T01:29:18.164Z,38.13
2023-03-10T01:31:45.242Z,27.45
2023-03-10T01:34:12.191Z,22.90
2023-03-10T01:36:41.214Z,20.95
2023-03-10T01:39:09.600Z,19.98
2023-03-10T01:41:38.942Z,23.00
2023-03-10T01:44:06.424Z,18.13
2023-03-10T01:46:45.395Z,19.00
2023-03-10T01:49:16.765Z,17.60
2023-03-10T01:51:45.930Z,16.48
2023-03-10T01:54:15.638Z,16.63
2023-03-10T01:56:42.955Z,16.45
2023-03-10T01:59:10.563Z,14.95
2023-03-10T02:01:37.580Z,16.02
2023-03-10T02:04:06.873Z,21.80
2023-03-10T02:06:34.962Z,23.35
2023-03-10T02:09:03.005Z,18.38
2023-03-10T02:11:31.657Z,17.05
2023-03-10T02:14:01.258Z,22.60
2023-03-10T02:16:28.356Z,20.33
2023-03-10T02:18:55.418Z,19.90
2023-03-10T02:21:27.872Z,22.63
2023-03-10T02:24:01.428Z,25.25
2023-03-10T02:26:35.642Z,26.23
2023-03-10T02:29:06.029Z,25.42
2023-03-10T02:31:33.517Z,23.00
2023-03-10T02:34:01.079Z,21.20
2023-03-10T02:36:28.153Z,23.48
2023-03-10T02:38:55.121Z,18.38
2023-03-10T02:41:23.721Z,19.88
2023-03-10T02:43:51.019Z,19.92
2023-03-10T02:46:19.785Z,19.73
2023-03-10T02:48:46.863Z,18.50
2023-03-10T02:51:16.476Z,18.63
2023-03-10T02:53:43.515Z,15.95
2023-03-10T02:56:10.608Z,13.93
2023-03-10T02:58:37.570Z,12.45
2023-03-10T03:01:05.410Z,12.90
2023-03-10T03:03:34.665Z,12.95
2023-03-10T03:06:01.690Z,13.13
2023-03-10T03:08:29.155Z,12.68
2023-03-10T03:10:56.331Z,12.00
2023-03-10T03:13:23.485Z,13.55
2023-03-10T03:15:50.784Z,14.82
2023-03-10T03:18:17.964Z,13.68
2023-03-10T03:20:46.404Z,11.98
2023-03-10T03:23:13.642Z,9.00
2023-03-10T03:25:41.193Z,12.73
2023-03-10T03:28:09.516Z,11.60
2023-03-10T03:30:36.823Z,12.68
2023-03-10T03:33:05.570Z,10.00
2023-03-10T03:35:33.608Z,14.20
2023-03-10T03:38:02.408Z,13.57
2023-03-10T03:40:31.003Z,13.15
2023-03-10T03:42:57.953Z,14.43
2023-03-10T03:45:25.896Z,12.52
2023-03-10T03:47:53.021Z,13.20
2023-03-10T03:50:20.575Z,11.25
2023-03-10T03:52:47.925Z,14.40
2023-03-10T03:55:17.476Z,11.57
2023-03-10T03:57:45.978Z,10.85
2023-03-10T04:00:14.344Z,11.73
2023-03-10T04:02:41.380Z,12.07
2023-03-10T04:05:08.528Z,15.40
2023-03-10T04:07:35.548Z,12.82
2023-03-10T04:10:03.971Z,11.53
2023-03-10T04:12:33.104Z,13.27
2023-03-10T04:15:00.264Z,10.27
2023-03-10T04:17:27.255Z,10.90
2023-03-10T04:20:06.252Z,11.35
2023-03-10T04:22:34.368Z,11.43
2023-03-10T04:25:01.403Z,10.23
2023-03-10T04:27:28.423Z,10.57
2023-03-10T04:29:57.501Z,11.05
2023-03-10T04:32:24.598Z,12.20
2023-03-10T04:34:51.927Z,9.45
2023-03-10T04:37:20.423Z,11.13
2023-03-10T04:39:48.745Z,10.70
2023-03-10T04:42:15.674Z,10.48
2023-03-10T04:44:42.715Z,11.35
2023-03-10T04:47:11.082Z,9.20
2023-03-10T04:49:38.670Z,11.97
2023-03-10T04:52:05.947Z,10.48
2023-03-10T04:54:32.940Z,10.25
2023-03-10T04:56:59.985Z,9.43
2023-03-10T04:59:27.093Z,11.43
2023-03-10T05:01:54.104Z,12.43
2023-03-10T05:04:22.587Z,9.70
2023-03-10T05:06:50.453Z,10.05
2023-03-10T05:09:17.586Z,9.85
2023-03-10T05:11:44.563Z,10.85
2023-03-10T05:14:11.628Z,10.68
2023-03-10T05:16:38.648Z,10.73
2023-03-10T05:19:05.826Z,11.10
2023-03-10T05:21:34.386Z,12.02
2023-03-10T05:24:01.426Z,12.75
2023-03-10T05:26:28.518Z,12.43
2023-03-10T05:28:55.549Z,11.35
2023-03-10T05:31:26.219Z,11.90
2023-03-10T05:33:53.686Z,13.38
2023-03-10T05:36:20.919Z,13.43
2023-03-10T05:38:49.556Z,16.83
2023-03-10T05:41:16.858Z,11.25
2023-03-10T05:43:43.970Z,12.07
2023-03-10T05:46:11.703Z,12.10
2023-03-10T05:48:38.807Z,11.48
2023-03-10T05:51:06.965Z,12.15
2023-03-10T05:53:34.842Z,12.15
2023-03-10T05:56:06.709Z,15.13
2023-03-10T05:58:33.805Z,17.95
2023-03-10T06:01:00.827Z,19.27
2023-03-10T06:03:30.148Z,15.93
2023-03-10T06:05:57.361Z,17.20
2023-03-10T06:08:25.361Z,16.98
2023-03-10T06:10:52.415Z,14.85
2023-03-10T06:13:21.230Z,12.75
2023-03-10T06:15:48.723Z,10.48
2023-03-10T06:18:15.603Z,10.35
2023-03-10T06:20:42.804Z,13.90
2023-03-10T06:23:10.716Z,13.70
2023-03-10T06:25:37.847Z,14.23
2023-03-10T06:28:04.743Z,14.40
2023-03-10T06:30:33.572Z,16.63
2023-03-10T06:33:01.399Z,17.77
2023-03-10T06:35:28.496Z,19.42
2023-03-10T06:37:57.378Z,19.05
2023-03-10T06:40:24.436Z,24.57
2023-03-10T06:42:51.580Z,21.58
2023-03-10T06:45:18.979Z,26.60
2023-03-10T06:47:49.065Z,29.67
2023-03-10T06:50:16.084Z,28.20
2023-03-10T06:52:43.010Z,26.90
2023-03-10T06:55:10.979Z,21.40
2023-03-10T06:57:38.203Z,19.17
2023-03-10T07:00:08.259Z,16.55
2023-03-10T07:02:35.791Z,19.77
2023-03-10T07:05:05.028Z,23.23
2023-03-10T07:07:32.273Z,21.52
2023-03-10T07:10:00.961Z,18.95
2023-03-10T07:12:28.220Z,21.00
2023-03-10T07:14:57.069Z,17.13
2023-03-10T07:17:26.825Z,21.43
2023-03-10T07:19:53.837Z,23.08
2023-03-10T07:22:22.753Z,22.48
2023-03-10T07:24:49.665Z,20.67
2023-03-10T07:27:16.579Z,15.25
2023-03-10T07:29:43.809Z,14.90
2023-03-10T07:32:10.857Z,12.93
2023-03-10T07:34:37.803Z,13.18
2023-03-10T07:37:04.850Z,13.18
2023-03-10T07:39:33.309Z,12.20
2023-03-10T07:42:03.737Z,10.20
2023-03-10T07:44:30.650Z,11.68
2023-03-10T07:46:57.998Z,11.95
2023-03-10T07:49:25.298Z,10.85
2023-03-10T07:51:52.586Z,12.82
2023-03-10T07:54:20.194Z,9.90
2023-03-10T07:56:51.026Z,9.20
2023-03-10T07:59:18.153Z,9.60
2023-03-10T08:01:45.155Z,9.75
2023-03-10T08:04:12.747Z,11.10
2023-03-10T08:06:40.126Z,8.80
2023-03-10T08:09:07.487Z,8.70
2023-03-10T08:11:34.769Z,12.95
2023-03-10T08:14:03.235Z,10.63
2023-03-10T08:16:30.257Z,9.85
2023-03-10T08:18:57.340Z,8.87
2023-03-10T08:21:24.509Z,10.88
2023-03-10T08:23:51.490Z,8.60
2023-03-10T08:26:19.405Z,8.20
2023-03-10T08:28:49.436Z,8.73
2023-03-10T08:31:18.976Z,11.23
2023-03-10T08:33:46.194Z,10.35
2023-03-10T08:36:15.417Z,9.70
2023-03-10T08:38:43.093Z,8.43
2023-03-10T08:41:11.896Z,7.25
2023-03-10T08:43:41.825Z,8.40
2023-03-10T08:46:10.636Z,7.88
2023-03-10T08:48:43.014Z,9.60
2023-03-10T08:51:10.672Z,8.40
2023-03-10T08:53:38.912Z,9.27
2023-03-10T08:56:06.487Z,8.53
2023-03-10T08:58:36.775Z,7.55
2023-03-10T09:01:07.071Z,10.57
2023-03-10T09:03:37.638Z,7.80
2023-03-10T09:06:06.181Z,8.65
2023-03-10T09:08:33.115Z,8.80
2023-03-10T09:11:00.498Z,10.20
2023-03-10T09:13:27.455Z,7.30
2023-03-10T09:15:54.587Z,8.13
2023-03-10T09:18:21.831Z,8.63
2023-03-10T09:20:48.845Z,8.70
2023-03-10T09:23:17.361Z,7.32
2023-03-10T09:25:44.607Z,6.00
2023-03-10T09:28:11.798Z,7.88
2023-03-10T09:30:39.606Z,7.97
2023-03-10T09:33:07.675Z,9.07
2023-03-10T09:35:35.980Z,8.75
2023-03-10T09:38:09.653Z,6.65
2023-03-10T09:40:43.260Z,6.97
2023-03-10T09:43:13.295Z,11.95
2023-03-10T09:45:43.598Z,8.17
2023-03-10T09:48:26.477Z,8.73
2023-03-10T09:50:54.624Z,7.25
2023-03-10T09:54:11.690Z,7.07
2023-03-10T09:56:51.128Z,7.28
2023-03-10T09:59:47.157Z,7.43
2023-03-10T10:03:08.979Z,9.75
2023-03-10T10:05:49.960Z,8.18
2023-03-10T10:08:21.292Z,8.55
2023-03-10T10:10:49.938Z,10.07
2023-03-10T10:13:23.119Z,11.63
2023-03-10T10:16:08.696Z,8.00
2023-03-10T10:21:59.388Z,10.68
2023-03-10T10:27:26.066Z,6.60
2023-03-10T10:30:25.529Z,9.55
2023-03-10T10:32:58.399Z,8.63
2023-03-10T10:35:26.555Z,6.25
2023-03-10T10:38:04.063Z,6.60
2023-03-10T10:40:33.441Z,5.40
2023-03-10T10:43:01.408Z,6.78
2023-03-10T10:45:30.366Z,8.50
2023-03-10T10:47:59.603Z,8.05
2023-03-10T10:50:28.018Z,7.22
2023-03-10T10:53:09.705Z,6.63
2023-03-10T10:55:36.700Z,7.30
2023-03-10T10:58:04.492Z,9.82
2023-03-10T11:00:33.175Z,6.40
2023-03-10T11:03:18.554Z,9.05
2023-03-10T11:05:48.610Z,6.93
2023-03-10T11:08:19.405Z,7.65
2023-03-10T11:10:51.503Z,8.55
2023-03-10T11:13:21.692Z,6.07
2023-03-10T11:15:52.402Z,7.30
2023-03-10T11:18:25.365Z,8.03
2023-03-10T11:20:55.400Z,7.63
2023-03-10T11:23:25.278Z,9.57
2023-03-10T11:25:54.660Z,7.13
2023-03-10T11:28:42.340Z,10.43
2023-03-10T11:31:15.290Z,9.43
2023-03-10T11:33:48.940Z,8.30
2023-03-10T11:36:19.856Z,7.38
2023-03-10T11:38:48.741Z,13.50
2023-03-10T11:41:20.660Z,8.32
2023-03-10T11:44:01.249Z,9.10
2023-03-10T11:46:57.487Z,9.07
2023-03-10T11:49:28.194Z,12.35
2023-03-10T11:54:40.094Z,8.30
2023-03-10T11:57:13.528Z,6.50
2023-03-10T11:59:49.901Z,6.20
2023-03-10T12:02:20.288Z,6.20
2023-03-10T12:04:54.317Z,5.40
2023-03-10T12:07:23.516Z,6.03
2023-03-10T12:09:51.994Z,8.57
2023-03-10T12:12:20.374Z,7.35
2023-03-10T12:15:00.660Z,7.75
2023-03-10T12:17:28.711Z,5.28
2023-03-10T12:20:14.342Z,6.20
2023-03-10T12:22:52.631Z,5.73
2023-03-10T12:25:45.245Z,8.27
2023-03-10T12:28:24.425Z,5.70
2023-03-10T12:30:58.952Z,6.72
2023-03-10T12:33:42.957Z,6.88
2023-03-10T12:36:11.772Z,7.17
2023-03-10T12:38:54.223Z,6.60
2023-03-10T12:41:40.047Z,6.53
2023-03-10T12:44:25.874Z,6.18
2023-03-10T12:46:54.882Z,7.78
2023-03-10T12:49:25.348Z,6.60
2023-03-10T12:51:55.161Z,9.07
2023-03-10T12:54:40.403Z,6.00
2023-03-10T12:57:10.114Z,8.93
2023-03-10T12:59:40.789Z,7.22
2023-03-10T13:02:37.320Z,8.47
2023-03-10T13:05:06.272Z,7.55
2023-03-10T13:07:34.955Z,5.95
2023-03-10T13:10:07.178Z,6.75
2023-03-10T13:12:37.815Z,8.32
2023-03-10T13:15:08.327Z,6.40
2023-03-10T13:17:35.523Z,6.43
2023-03-10T13:20:05.792Z,7.03
2023-03-10T13:22:33.432Z,6.63
2023-03-10T13:25:02.304Z,6.57
2023-03-10T13:27:31.709Z,5.53
2023-03-10T13:29:59.804Z,7.97
2023-03-10T13:32:26.922Z,6.85
2023-03-10T13:34:54.096Z,8.00
2023-03-10T13:37:21.087Z,6.75
2023-03-10T13:39:48.190Z,7.37
2023-03-10T13:42:19.363Z,8.60
2023-03-10T13:44:49.635Z,5.35
2023-03-10T13:47:17.874Z,7.35
2023-03-10T13:49:46.691Z,8.77
2023-03-10T13:52:19.133Z,8.67
2023-03-10T13:54:46.201Z,8.05
2023-03-10T13:57:16.862Z,7.72
2023-03-10T13:59:44.492Z,6.32
2023-03-10T14:02:17.134Z,5.72
2023-03-10T14:04:45.530Z,7.60
2023-03-10T14:07:14.025Z,5.57
2023-03-10T14:09:40.985Z,6.85
2023-03-10T14:12:08.823Z,7.53
2023-03-10T14:14:38.647Z,6.07
2023-03-10T14:17:06.152Z,6.80
2023-03-10T14:19:46.085Z,7.57
2023-03-10T14:22:38.069Z,5.85
2023-03-10T14:25:10.553Z,6.00
2023-03-10T14:27:41.055Z,7.70
2023-03-10T14:30:17.688Z,7.97
2023-03-10T14:32:45.248Z,5.40
2023-03-10T14:35:14.132Z,5.75
2023-03-10T14:37:41.138Z,6.00
2023-03-10T14:40:08.848Z,5.25
2023-03-10T14:42:35.909Z,5.90
2023-03-10T14:45:05.503Z,5.30
2023-03-10T14:47:32.736Z,4.80
2023-03-10T14:50:00.705Z,5.20
2023-03-10T14:52:29.152Z,8.32
2023-03-10T14:54:56.134Z,8.10
2023-03-10T14:57:23.148Z,7.28
2023-03-10T14:59:50.131Z,6.95
2023-03-10T15:02:19.898Z,6.07
2023-03-10T15:04:47.024Z,8.20
2023-03-10T15:07:15.331Z,7.73
2023-03-10T15:09:43.655Z,7.40
2023-03-10T15:12:10.882Z,5.72
2023-03-10T15:14:37.829Z,7.00
2023-03-10T15:17:04.933Z,7.57
2023-03-10T15:19:31.888Z,5.67
2023-03-10T15:21:59.100Z,4.63
2023-03-10T15:24:26.028Z,6.43
2023-03-10T15:26:54.727Z,6.53
2023-03-10T15:29:23.600Z,7.63
2023-03-10T15:31:51.060Z,5.53
2023-03-10T15:34:19.638Z,7.32
2023-03-10T15:36:47.795Z,20.30
2023-03-10T15:39:29.092Z,87.88
2023-03-10T15:41:59.917Z,45.47
2023-03-10T15:44:26.949Z,17.27
2023-03-10T15:46:55.114Z,19.45
2023-03-10T15:49:22.484Z,17.98
2023-03-10T15:51:49.567Z,20.13
2023-03-10T15:54:16.526Z,21.85
2023-03-10T15:56:43.475Z,18.77
2023-03-10T15:59:12.261Z,22.55
2023-03-10T16:01:39.905Z,22.67
2023-03-10T16:04:06.968Z,16.90
2023-03-10T16:06:34.192Z,20.63
2023-03-10T16:09:01.225Z,19.33
2023-03-10T16:11:28.519Z,14.55
2023-03-10T16:13:55.500Z,11.25
2023-03-10T16:16:23.926Z,9.80
2023-03-10T16:18:51.428Z,10.98
2023-03-10T16:21:18.952Z,8.37
2023-03-10T16:23:45.933Z,8.10
2023-03-10T16:26:13.715Z,10.63
2023-03-10T16:28:41.957Z,9.27
2023-03-10T16:31:09.688Z,8.02
2023-03-10T16:33:38.419Z,15.00
2023-03-10T16:36:07.121Z,15.80
2023-03-10T16:38:34.962Z,11.82
2023-03-10T16:41:02.176Z,12.63
2023-03-10T16:43:30.117Z,11.73
2023-03-10T16:46:04.437Z,10.03
2023-03-10T16:48:32.105Z,11.57
2023-03-10T16:51:06.923Z,14.77
2023-03-10T16:53:33.932Z,16.85
2023-03-10T16:56:04.135Z,11.55
2023-03-10T16:58:34.054Z,7.33
2023-03-10T17:01:01.234Z,13.65
2023-03-10T17:03:28.441Z,8.98
2023-03-10T17:05:55.482Z,8.85
2023-03-10T17:08:24.023Z,7.90
2023-03-10T17:10:51.156Z,8.00
2023-03-10T17:13:18.651Z,6.40
2023-03-10T17:15:45.573Z,7.53
2023-03-10T17:18:12.540Z,6.68
2023-03-10T17:20:39.535Z,6.22
2023-03-10T17:23:06.937Z,6.27
2023-03-10T17:25:35.389Z,6.93
2023-03-10T17:28:02.292Z,6.20
2023-03-10T17:30:29.506Z,5.90
2023-03-10T17:32:56.650Z,7.22
2023-03-10T17:35:23.701Z,7.40
2023-03-10T17:37:51.136Z,7.70
2023-03-10T17:40:22.239Z,7.72
2023-03-10T17:42:51.103Z,8.60
2023-03-10T17:45:18.088Z,11.98
2023-03-10T17:47:45.456Z,13.17
2023-03-10T17:50:13.185Z,15.48
2023-03-10T17:52:40.670Z,16.63
2023-03-10T17:55:08.319Z,19.63
2023-03-10T17:57:35.428Z,22.33
2023-03-10T18:00:05.109Z,16.23
2023-03-10T18:02:32.145Z,18.20
2023-03-10T18:04:59.391Z,19.45
2023-03-10T18:07:27.664Z,20.50
2023-03-10T18:09:57.030Z,17.48
2023-03-10T18:12:24.334Z,18.90
2023-03-10T18:14:52.221Z,16.25
2023-03-10T18:17:20.794Z,27.42
2023-03-10T18:19:50.236Z,14.68
2023-03-10T18:22:17.204Z,12.43
2023-03-10T18:24:44.434Z,14.37
2023-03-10T18:27:11.702Z,14.77
2023-03-10T18:29:38.705Z,12.98
2023-03-10T18:32:06.104Z,19.17
2023-03-10T18:34:34.690Z,21.73
2023-03-10T18:37:05.749Z,21.97
2023-03-10T18:39:32.900Z,21.60
2023-03-10T18:42:00.003Z,18.27
2023-03-10T18:44:27.450Z,17.45
2023-03-10T18:46:54.599Z,14.10
2023-03-10T18:49:21.890Z,19.83
2023-03-10T18:51:50.586Z,19.92
2023-03-10T18:54:18.940Z,20.55
2023-03-10T18:56:46.097Z,20.67
2023-03-10T18:59:13.086Z,61.78
2023-03-10T19:01:40.369Z,46.63
2023-03-10T19:04:07.881Z,38.92
2023-03-10T19:06:35.338Z,27.27
2023-03-10T19:09:04.085Z,31.98
2023-03-10T19:11:35.505Z,19.38
2023-03-10T19:14:03.549Z,39.10
2023-03-10T19:16:30.695Z,25.02
2023-03-10T19:18:58.205Z,18.20
2023-03-10T19:21:25.504Z,28.55
2023-03-10T19:23:52.722Z,36.05
2023-03-10T19:26:21.436Z,26.40
2023-03-10T19:28:48.586Z,20.05
2023-03-10T19:31:16.159Z,23.75
2023-03-10T19:33:43.488Z,18.75
2023-03-10T19:36:12.710Z,21.55
2023-03-10T19:38:40.966Z,22.33
2023-03-10T19:41:11.041Z,19.83
2023-03-10T19:43:39.769Z,19.80
2023-03-10T19:46:07.933Z,19.75
2023-03-10T19:48:35.752Z,23.83
2023-03-10T19:51:03.160Z,23.50
2023-03-10T19:53:30.222Z,19.77
2023-03-10T19:55:59.321Z,20.08
2023-03-10T19:58:27.044Z,21.42
2023-03-10T20:00:57.920Z,17.65
2023-03-10T20:03:26.311Z,20.90
2023-03-10T20:05:54.695Z,22.10
2023-03-10T20:08:22.334Z,25.13
2023-03-10T20:10:49.800Z,29.45
2023-03-10T20:13:17.017Z,26.95
2023-03-10T20:15:43.975Z,27.87
2023-03-10T20:18:12.635Z,24.33
2023-03-10T20:20:40.580Z,17.88
2023-03-10T20:23:08.687Z,15.82
2023-03-10T20:25:35.891Z,23.05
2023-03-10T20:28:03.150Z,53.43
2023-03-10T20:30:30.908Z,39.47
2023-03-10T20:32:59.229Z,19.75
2023-03-10T20:35:30.180Z,14.05
2023-03-10T20:37:57.549Z,17.47
2023-03-10T20:40:25.070Z,12.37
2023-03-10T20:42:52.793Z,13.07
2023-03-10T20:45:20.245Z,12.10
2023-03-10T20:47:48.449Z,11.35
2023-03-10T20:50:17.400Z,14.77
2023-03-10T20:52:46.299Z,14.77
2023-03-10T20:55:15.791Z,12.38
2023-03-10T20:57:43.078Z,15.70
2023-03-10T21:00:12.257Z,15.50
2023-03-10T21:02:39.805Z,15.30
2023-03-10T21:05:07.660Z,18.47
2023-03-10T21:07:34.821Z,16.33
2023-03-10T21:10:04.801Z,18.20
2023-03-10T21:12:32.189Z,15.98
2023-03-10T21:14:59.301Z,18.38
2023-03-10T21:17:28.071Z,15.38
2023-03-10T21:19:55.268Z,14.68
2023-03-10T21:22:22.315Z,19.48
2023-03-10T21:24:49.587Z,15.63
2023-03-10T21:27:18.047Z,12.90
2023-03-10T21:29:45.333Z,16.53
2023-03-10T21:32:12.524Z,16.20
2023-03-10T21:34:39.516Z,15.70
2023-03-10T21:37:08.657Z,14.18
2023-03-10T21:39:35.855Z,14.57
2023-03-10T21:42:03.173Z,8.77
2023-03-10T21:44:31.665Z,10.32
2023-03-10T21:47:01.491Z,8.30
2023-03-10T21:49:28.429Z,9.65
2023-03-10T21:51:55.891Z,7.38
2023-03-10T21:54:22.921Z,6.93
2023-03-10T21:56:49.998Z,7.20
2023-03-10T21:59:17.019Z,8.50
2023-03-10T22:01:45.387Z,10.45
2023-03-10T22:04:12.567Z,9.93
2023-03-10T22:06:39.844Z,8.27
2023-03-10T22:09:06.903Z,7.63
2023-03-10T22:11:34.135Z,8.23
2023-03-10T22:14:01.138Z,7.90
2023-03-10T22:16:28.376Z,10.30
2023-03-10T22:18:56.993Z,14.65
2023-03-10T22:21:23.958Z,11.02
2023-03-10T22:23:51.097Z,10.05
2023-03-10T22:26:18.306Z,10.35
2023-03-10T22:28:45.233Z,8.60
2023-03-10T22:31:12.920Z,10.67
2023-03-10T22:33:40.245Z,10.10
2023-03-10T22:36:11.350Z,10.88
2023-03-10T22:38:38.536Z,11.15
2023-03-10T22:41:08.945Z,13.07
2023-03-10T22:43:35.912Z,10.47
2023-03-10T22:46:06.870Z,12.48
2023-03-10T22:48:33.923Z,11.68
2023-03-10T22:51:00.881Z,10.10
2023-03-10T22:53:29.557Z,11.45
2023-03-10T22:55:56.796Z,10.32
2023-03-10T22:58:23.690Z,11.30
2023-03-10T23:00:50.750Z,12.48
2023-03-10T23:03:17.959Z,13.07
2023-03-10T23:05:47.981Z,11.13
2023-03-10T23:08:16.712Z,13.43
2023-03-10T23:10:45.250Z,11.00
2023-03-10T23:13:13.186Z,10.30
2023-03-10T23:15:40.606Z,14.25
2023-03-10T23:18:08.260Z,12.60
2023-03-10T23:20:37.546Z,14.43
2023-03-10T23:23:05.419Z,14.13
2023-03-10T23:25:33.401Z,15.93
2023-03-10T23:28:02.203Z,13.55
2023-03-10T23:30:29.825Z,16.08
2023-03-10T23:32:57.131Z,13.53
2023-03-10T23:35:25.426Z,12.30
2023-03-10T23:37:52.954Z,14.65
2023-03-10T23:40:21.378Z,13.10
2023-03-10T23:42:48.512Z,11.95
2023-03-10T23:45:18.798Z,13.57
2023-03-10T23:47:45.977Z,14.80
2023-03-10T23:50:16.097Z,16.73
2023-03-10T23:52:43.426Z,17.63
2023-03-10T23:55:12.716Z,13.85
2023-03-10T23:57:39.664Z,18.60
